sensor_id;sensor_type;location;lat;lon;timestamp;P1;P2;P0
82821;PMS5003;72574;46.842;-71.246;2024-02-16T00:00:51;11.15;9.75;5.85
82821;PMS5003;72574;46.842;-71.246;2024-02-16T00:03:16;26.33;19.67;11.81
82821;PMS5003;72574;46.842;-71.246;2024-02-16T00:05:43;18.57;12.19;6.76
82821;PMS5003;72574;46.842;-71.246;2024-02-16T00:08:09;16.76;9.24;4.86
82821;PMS5003;72574;46.842;-71.246;2024-02-16T00:10:34;26;21;12
82821;PMS5003;72574;46.842;-71.246;2024-02-16T00:13:00;20.95;14.15;7
82821;PMS5003;72574;46.842;-71.246;2024-02-16T00:15:26;11.81;9.9;6.52
82821;PMS5003;72574;46.842;-71.246;2024-02-16T00:17:50;15.59;13.91;6.55
82821;PMS5003;72574;46.842;-71.246;2024-02-16T00:20:16;21.38;18.14;10.1
82821;PMS5003;72574;46.842;-71.246;2024-02-16T00:22:43;20.05;11.14;7
82821;PMS5003;72574;46.842;-71.246;2024-02-16T00:25:07;15.6;7.05;3.95
82821;PMS5003;72574;46.842;-71.246;2024-02-16T00:27:33;8.52;7.95;4
82821;PMS5003;72574;46.842;-71.246;2024-02-16T00:29:58;5.5;5.5;3.59
82821;PMS5003;72574;46.842;-71.246;2024-02-16T00:32:26;21.95;17.24;7.48
82821;PMS5003;72574;46.842;-71.246;2024-02-16T00:34:52;15.68;12.68;8.82
82821;PMS5003;72574;46.842;-71.246;2024-02-16T00:37:16;16.71;13.67;8.81
82821;PMS5003;72574;46.842;-71.246;2024-02-16T00:39:43;18.43;17.71;11.62
82821;PMS5003;72574;46.842;-71.246;2024-02-16T00:42:09;13.29;12.62;8.43
82821;PMS5003;72574;46.842;-71.246;2024-02-16T00:44:33;18;12.33;8.81
82821;PMS5003;72574;46.842;-71.246;2024-02-16T00:46:59;12.95;10.76;7
82821;PMS5003;72574;46.842;-71.246;2024-02-16T00:49:25;11.52;9.76;7
82821;PMS5003;72574;46.842;-71.246;2024-02-16T00:51:49;15.36;13.73;9.14
82821;PMS5003;72574;46.842;-71.246;2024-02-16T00:54:17;20.62;16.1;9.52
82821;PMS5003;72574;46.842;-71.246;2024-02-16T00:56:41;12.86;11.24;7
82821;PMS5003;72574;46.842;-71.246;2024-02-16T00:59:06;15.29;13.48;7.19
82821;PMS5003;72574;46.842;-71.246;2024-02-16T01:01:34;20.24;14.33;6.48
82821;PMS5003;72574;46.842;-71.246;2024-02-16T01:03:58;21.33;20.86;13.38
82821;PMS5003;72574;46.842;-71.246;2024-02-16T01:06:24;24.43;18.67;10.05
82821;PMS5003;72574;46.842;-71.246;2024-02-16T01:08:50;34.41;25.68;12.68
82821;PMS5003;72574;46.842;-71.246;2024-02-16T01:11:16;32.05;19.3;12.3
82821;PMS5003;72574;46.842;-71.246;2024-02-16T01:13:42;18.57;15.05;11.33
82821;PMS5003;72574;46.842;-71.246;2024-02-16T01:16:06;26.14;20.38;12.67
82821;PMS5003;72574;46.842;-71.246;2024-02-16T01:18:32;23.19;20.14;12.1
82821;PMS5003;72574;46.842;-71.246;2024-02-16T01:20:56;32.86;22.1;10.38
82821;PMS5003;72574;46.842;-71.246;2024-02-16T01:23:23;15.38;13.43;9.57
82821;PMS5003;72574;46.842;-71.246;2024-02-16T01:25:49;24.59;16.68;9.27
82821;PMS5003;72574;46.842;-71.246;2024-02-16T01:28:13;18.33;16.76;10
82821;PMS5003;72574;46.842;-71.246;2024-02-16T01:30:39;37;26.95;14.53
82821;PMS5003;72574;46.842;-71.246;2024-02-16T01:33:06;30.81;26.29;15.57
82821;PMS5003;72574;46.842;-71.246;2024-02-16T01:35:31;34.6;26.1;14.35
82821;PMS5003;72574;46.842;-71.246;2024-02-16T01:37:54;24.71;21.1;12.9
82821;PMS5003;72574;46.842;-71.246;2024-02-16T01:40:21;27.38;20.29;13.57
82821;PMS5003;72574;46.842;-71.246;2024-02-16T01:42:47;36.11;23.37;11.37
82821;PMS5003;72574;46.842;-71.246;2024-02-16T01:45:13;17.62;13.57;9.1
82821;PMS5003;72574;46.842;-71.246;2024-02-16T01:47:37;24.19;15.48;9.71
82821;PMS5003;72574;46.842;-71.246;2024-02-16T01:50:04;20.71;18.71;9.76
82821;PMS5003;72574;46.842;-71.246;2024-02-16T01:52:31;19.3;14.9;9.65
82821;PMS5003;72574;46.842;-71.246;2024-02-16T01:54:53;19.55;14.6;9.4
82821;PMS5003;72574;46.842;-71.246;2024-02-16T01:57:20;36.55;17.6;9.6
82821;PMS5003;72574;46.842;-71.246;2024-02-16T01:59:46;19.71;15.48;9.62
82821;PMS5003;72574;46.842;-71.246;2024-02-16T02:02:12;19.19;14.71;9.24
82821;PMS5003;72574;46.842;-71.246;2024-02-16T02:04:37;21.8;18.1;9.8
82821;PMS5003;72574;46.842;-71.246;2024-02-16T02:07:10;19.86;16.1;10
82821;PMS5003;72574;46.842;-71.246;2024-02-16T02:09:28;21.81;18.95;11.57
82821;PMS5003;72574;46.842;-71.246;2024-02-16T02:11:54;36.63;25.26;12.68
82821;PMS5003;72574;46.842;-71.246;2024-02-16T02:14:18;25.57;19.1;13
82821;PMS5003;72574;46.842;-71.246;2024-02-16T02:16:46;31.3;22.1;13.6
82821;PMS5003;72574;46.842;-71.246;2024-02-16T02:19:09;20.33;18.33;11.52
82821;PMS5003;72574;46.842;-71.246;2024-02-16T02:21:35;18.19;17.05;10.95
82821;PMS5003;72574;46.842;-71.246;2024-02-16T02:24:01;21;15.43;10.38
82821;PMS5003;72574;46.842;-71.246;2024-02-16T02:26:25;36.26;21;12.95
82821;PMS5003;72574;46.842;-71.246;2024-02-16T02:28:50;39.74;26.84;14.74
82821;PMS5003;72574;46.842;-71.246;2024-02-16T02:31:17;24.95;18.62;10.29
82821;PMS5003;72574;46.842;-71.246;2024-02-16T02:33:44;25.36;25;15.27
82821;PMS5003;72574;46.842;-71.246;2024-02-16T02:36:07;25.9;22.76;12.33
82821;PMS5003;72574;46.842;-71.246;2024-02-16T02:38:33;27.33;23.71;13.38
82821;PMS5003;72574;46.842;-71.246;2024-02-16T02:40:59;34.14;23.95;13.67
82821;PMS5003;72574;46.842;-71.246;2024-02-16T02:43:24;31.05;27.24;13.19
82821;PMS5003;72574;46.842;-71.246;2024-02-16T02:45:49;27.29;21.67;12.52
82821;PMS5003;72574;46.842;-71.246;2024-02-16T02:48:15;34.11;22.37;11.74
82821;PMS5003;72574;46.842;-71.246;2024-02-16T02:50:41;21.73;19.45;12.82
82821;PMS5003;72574;46.842;-71.246;2024-02-16T02:53:05;21.14;18.1;10.19
82821;PMS5003;72574;46.842;-71.246;2024-02-16T02:55:31;21;16.67;9.24
82821;PMS5003;72574;46.842;-71.246;2024-02-16T02:57:57;29.86;20.1;11.05
82821;PMS5003;72574;46.842;-71.246;2024-02-16T03:00:23;20.05;16.62;11.62
82821;PMS5003;72574;46.842;-71.246;2024-02-16T03:02:48;34.32;20.74;10.32
82821;PMS5003;72574;46.842;-71.246;2024-02-16T03:05:14;18.19;16.76;11.52
82821;PMS5003;72574;46.842;-71.246;2024-02-16T03:07:38;19.59;17;10.14
82821;PMS5003;72574;46.842;-71.246;2024-02-16T03:10:05;18.62;16.48;9.57
82821;PMS5003;72574;46.842;-71.246;2024-02-16T03:12:31;28.62;22.76;12
82821;PMS5003;72574;46.842;-71.246;2024-02-16T03:14:55;18.14;17.76;11.1
82821;PMS5003;72574;46.842;-71.246;2024-02-16T03:17:22;19.71;17.33;10.48
82821;PMS5003;72574;46.842;-71.246;2024-02-16T03:19:46;20.48;19.33;12.38
82821;PMS5003;72574;46.842;-71.246;2024-02-16T03:22:12;16.2;14.2;9.7
82821;PMS5003;72574;46.842;-71.246;2024-02-16T03:24:38;24.32;17.73;9.55
82821;PMS5003;72574;46.842;-71.246;2024-02-16T03:27:02;21.67;19.86;11.24
82821;PMS5003;72574;46.842;-71.246;2024-02-16T03:29:27;27.62;23.19;12
82821;PMS5003;72574;46.842;-71.246;2024-02-16T03:31:52;20.95;18.9;10.9
82821;PMS5003;72574;46.842;-71.246;2024-02-16T03:34:19;19.81;18;13.48
82821;PMS5003;72574;46.842;-71.246;2024-02-16T03:36:45;25.1;21.71;12.57
82821;PMS5003;72574;46.842;-71.246;2024-02-16T03:39:11;27.62;25.14;15.43
82821;PMS5003;72574;46.842;-71.246;2024-02-16T03:41:35;34.09;25.41;14.32
82821;PMS5003;72574;46.842;-71.246;2024-02-16T03:44:01;26.19;23.52;15.81
82821;PMS5003;72574;46.842;-71.246;2024-02-16T03:46:28;32.57;27.67;17
82821;PMS5003;72574;46.842;-71.246;2024-02-16T03:48:53;31;25.19;14.9
82821;PMS5003;72574;46.842;-71.246;2024-02-16T03:51:16;27.33;23.62;15.14
82821;PMS5003;72574;46.842;-71.246;2024-02-16T03:53:42;25.14;23.33;13
82821;PMS5003;72574;46.842;-71.246;2024-02-16T03:56:10;25.95;20.19;13.24
82821;PMS5003;72574;46.842;-71.246;2024-02-16T03:58:35;31.14;26.82;15.41
82821;PMS5003;72574;46.842;-71.246;2024-02-16T04:00:59;33.14;23.52;14.9
82821;PMS5003;72574;46.842;-71.246;2024-02-16T04:03:26;45.71;29.86;15.71
82821;PMS5003;72574;46.842;-71.246;2024-02-16T04:05:52;42.63;26.32;15.95
82821;PMS5003;72574;46.842;-71.246;2024-02-16T04:08:16;28.24;24.52;15.76
82821;PMS5003;72574;46.842;-71.246;2024-02-16T04:10:42;40.8;28.6;16.65
82821;PMS5003;72574;46.842;-71.246;2024-02-16T04:13:06;29.14;26.38;15
82821;PMS5003;72574;46.842;-71.246;2024-02-16T04:15:33;30.48;27.57;16.95
82821;PMS5003;72574;46.842;-71.246;2024-02-16T04:17:59;60.83;43.17;22.56
82821;PMS5003;72574;46.842;-71.246;2024-02-16T04:20:22;55.89;41.26;22.95
82821;PMS5003;72574;46.842;-71.246;2024-02-16T04:22:48;44.55;37.1;22.2
82821;PMS5003;72574;46.842;-71.246;2024-02-16T04:25:14;70.7;49.55;30.4
82821;PMS5003;72574;46.842;-71.246;2024-02-16T04:27:38;75.9;53.6;32.5
82821;PMS5003;72574;46.842;-71.246;2024-02-16T04:30:05;69.16;49.53;31.79
82821;PMS5003;72574;46.842;-71.246;2024-02-16T04:32:32;74.1;55.86;35.48
82821;PMS5003;72574;46.842;-71.246;2024-02-16T04:34:58;68.5;51.45;29.75
82821;PMS5003;72574;46.842;-71.246;2024-02-16T04:37:21;82.95;58;36.55
82821;PMS5003;72574;46.842;-71.246;2024-02-16T04:39:47;76.2;58.1;36.75
82821;PMS5003;72574;46.842;-71.246;2024-02-16T04:42:14;72.63;55.58;34
82821;PMS5003;72574;46.842;-71.246;2024-02-16T04:44:38;84.25;61.15;36.75
82821;PMS5003;72574;46.842;-71.246;2024-02-16T04:47:03;83.15;61.15;37.6
82821;PMS5003;72574;46.842;-71.246;2024-02-16T04:49:30;82.67;58.9;35.67
82821;PMS5003;72574;46.842;-71.246;2024-02-16T04:51:57;84.35;59.75;36.25
82821;PMS5003;72574;46.842;-71.246;2024-02-16T04:54:20;64.7;52.2;32.6
82821;PMS5003;72574;46.842;-71.246;2024-02-16T04:56:46;55.05;48.5;30.5
82821;PMS5003;72574;46.842;-71.246;2024-02-16T04:59:10;69.85;48.5;29.55
82821;PMS5003;72574;46.842;-71.246;2024-02-16T05:01:37;58.95;48.05;31.75
82821;PMS5003;72574;46.842;-71.246;2024-02-16T05:04:03;47.95;41.9;25.8
82821;PMS5003;72574;46.842;-71.246;2024-02-16T05:06:29;51.81;44.95;27.57
82821;PMS5003;72574;46.842;-71.246;2024-02-16T05:08:56;48.05;37.38;22.86
82821;PMS5003;72574;46.842;-71.246;2024-02-16T05:11:20;52.95;38.25;22.05
82821;PMS5003;72574;46.842;-71.246;2024-02-16T05:13:44;59.21;42.21;28.26
82821;PMS5003;72574;46.842;-71.246;2024-02-16T05:16:10;59.8;49.35;32.1
82821;PMS5003;72574;46.842;-71.246;2024-02-16T05:18:35;50.9;42.35;26.2
82821;PMS5003;72574;46.842;-71.246;2024-02-16T05:21:02;56.9;44.5;27.1
82821;PMS5003;72574;46.842;-71.246;2024-02-16T05:23:26;62.62;44.76;23.81
82821;PMS5003;72574;46.842;-71.246;2024-02-16T05:25:54;34;32.95;22.24
82821;PMS5003;72574;46.842;-71.246;2024-02-16T05:28:17;33.86;29.24;15.29
82821;PMS5003;72574;46.842;-71.246;2024-02-16T05:30:43;22.14;18.43;10.71
82821;PMS5003;72574;46.842;-71.246;2024-02-16T05:33:07;20.3;17.8;10
82821;PMS5003;72574;46.842;-71.246;2024-02-16T05:35:33;15.9;13.65;8.3
82821;PMS5003;72574;46.842;-71.246;2024-02-16T05:37:59;13.15;12;7.75
82821;PMS5003;72574;46.842;-71.246;2024-02-16T05:40:24;13.81;10;6.1
82821;PMS5003;72574;46.842;-71.246;2024-02-16T05:42:51;12.75;11;6.8
82821;PMS5003;72574;46.842;-71.246;2024-02-16T05:45:15;12.55;11.75;7.3
82821;PMS5003;72574;46.842;-71.246;2024-02-16T05:47:43;14.9;12.3;6.55
82821;PMS5003;72574;46.842;-71.246;2024-02-16T05:50:06;15.2;13.25;7
82821;PMS5003;72574;46.842;-71.246;2024-02-16T05:52:32;18.43;12.52;7.95
82821;PMS5003;72574;46.842;-71.246;2024-02-16T05:54:58;13.7;11.6;6.55
82821;PMS5003;72574;46.842;-71.246;2024-02-16T05:57:24;12.68;10.09;6.14
82821;PMS5003;72574;46.842;-71.246;2024-02-16T05:59:48;18.75;11.15;6.4
82821;PMS5003;72574;46.842;-71.246;2024-02-16T06:02:15;15.71;13;6.81
82821;PMS5003;72574;46.842;-71.246;2024-02-16T06:04:39;14.67;9.9;5
82821;PMS5003;72574;46.842;-71.246;2024-02-16T06:07:06;15.8;11.7;6.55
82821;PMS5003;72574;46.842;-71.246;2024-02-16T06:09:33;15.25;12.35;7.05
82821;PMS5003;72574;46.842;-71.246;2024-02-16T06:11:57;13.05;11.1;6.55
82821;PMS5003;72574;46.842;-71.246;2024-02-16T06:14:23;11.43;9.81;4.43
82821;PMS5003;72574;46.842;-71.246;2024-02-16T06:16:47;12.25;9.4;5.7
82821;PMS5003;72574;46.842;-71.246;2024-02-16T06:19:15;9.45;8;4.2
82821;PMS5003;72574;46.842;-71.246;2024-02-16T06:21:40;10.7;7.85;5.5
82821;PMS5003;72574;46.842;-71.246;2024-02-16T06:24:03;8.3;8.3;4.45
82821;PMS5003;72574;46.842;-71.246;2024-02-16T06:26:30;11.4;8.55;5.7
82821;PMS5003;72574;46.842;-71.246;2024-02-16T06:29:02;9.95;8.71;5.76
82821;PMS5003;72574;46.842;-71.246;2024-02-16T06:31:27;6.76;6.52;3.52
82821;PMS5003;72574;46.842;-71.246;2024-02-16T06:33:51;10.15;8.85;4.1
82821;PMS5003;72574;46.842;-71.246;2024-02-16T06:36:18;8.15;7.75;4.55
82821;PMS5003;72574;46.842;-71.246;2024-02-16T06:38:43;8.3;8.1;3.85
82821;PMS5003;72574;46.842;-71.246;2024-02-16T06:41:07;6.9;5.1;4
82821;PMS5003;72574;46.842;-71.246;2024-02-16T06:43:35;8.5;6.9;4
82821;PMS5003;72574;46.842;-71.246;2024-02-16T06:45:59;7.67;6.71;4.57
82821;PMS5003;72574;46.842;-71.246;2024-02-16T06:48:24;7.8;7.5;4.65
82821;PMS5003;72574;46.842;-71.246;2024-02-16T06:50:51;8.1;7.2;4
82821;PMS5003;72574;46.842;-71.246;2024-02-16T06:53:18;7;7;4.1
82821;PMS5003;72574;46.842;-71.246;2024-02-16T06:55:41;10.1;8.1;4
82821;PMS5003;72574;46.842;-71.246;2024-02-16T06:58:05;7.19;7.19;4.48
82821;PMS5003;72574;46.842;-71.246;2024-02-16T07:00:32;9.05;6.65;4.1
82821;PMS5003;72574;46.842;-71.246;2024-02-16T07:02:57;6.19;5.1;2.86
82821;PMS5003;72574;46.842;-71.246;2024-02-16T07:05:24;8.55;7.05;3.6
82821;PMS5003;72574;46.842;-71.246;2024-02-16T07:07:48;9.4;8.4;5.4
82821;PMS5003;72574;46.842;-71.246;2024-02-16T07:10:16;9.55;7.4;4.35
82821;PMS5003;72574;46.842;-71.246;2024-02-16T07:12:39;7.25;6.35;3.1
82821;PMS5003;72574;46.842;-71.246;2024-02-16T07:15:07;7.9;7;3.3
82821;PMS5003;72574;46.842;-71.246;2024-02-16T07:17:30;9.25;4.85;4
82821;PMS5003;72574;46.842;-71.246;2024-02-16T07:19:57;5;4.71;3.05
82821;PMS5003;72574;46.842;-71.246;2024-02-16T07:22:23;7.9;7;3.95
82821;PMS5003;72574;46.842;-71.246;2024-02-16T07:24:47;8.45;8.1;4.6
82821;PMS5003;72574;46.842;-71.246;2024-02-16T07:27:13;6.25;6.25;3.15
82821;PMS5003;72574;46.842;-71.246;2024-02-16T07:29:39;7.1;6.3;3.4
82821;PMS5003;72574;46.842;-71.246;2024-02-16T07:32:04;8.4;6.55;3.3
82821;PMS5003;72574;46.842;-71.246;2024-02-16T07:34:31;5.26;4.21;3
82821;PMS5003;72574;46.842;-71.246;2024-02-16T07:36:54;6.38;4;2.86
82821;PMS5003;72574;46.842;-71.246;2024-02-16T07:39:21;6.15;5.2;2.65
82821;PMS5003;72574;46.842;-71.246;2024-02-16T07:41:47;7.25;4.25;2.95
82821;PMS5003;72574;46.842;-71.246;2024-02-16T07:44:10;9.1;7.6;3.7
82821;PMS5003;72574;46.842;-71.246;2024-02-16T07:46:39;7.85;5.45;2.9
82821;PMS5003;72574;46.842;-71.246;2024-02-16T07:49:03;6.45;5.55;2.55
82821;PMS5003;72574;46.842;-71.246;2024-02-16T07:51:28;4.4;4.2;3
82821;PMS5003;72574;46.842;-71.246;2024-02-16T07:53:53;3.67;3.67;2.48
82821;PMS5003;72574;46.842;-71.246;2024-02-16T07:56:20;5.45;5.45;2.7
82821;PMS5003;72574;46.842;-71.246;2024-02-16T07:58:44;4.55;4.55;2.45
82821;PMS5003;72574;46.842;-71.246;2024-02-16T08:01:08;5.2;3.95;2.05
82821;PMS5003;72574;46.842;-71.246;2024-02-16T08:03:34;7.1;5.6;3
82821;PMS5003;72574;46.842;-71.246;2024-02-16T08:06:01;6.7;5.05;2.7
82821;PMS5003;72574;46.842;-71.246;2024-02-16T08:08:24;6.25;4.35;2.9
82821;PMS5003;72574;46.842;-71.246;2024-02-16T08:10:52;5.86;3.43;1.71
82821;PMS5003;72574;46.842;-71.246;2024-02-16T08:13:17;4.8;3.55;1.25
82821;PMS5003;72574;46.842;-71.246;2024-02-16T08:15:44;6.25;4;2.95
82821;PMS5003;72574;46.842;-71.246;2024-02-16T08:18:09;7.15;6.8;3.4
82821;PMS5003;72574;46.842;-71.246;2024-02-16T08:20:34;5.4;4;2.55
82821;PMS5003;72574;46.842;-71.246;2024-02-16T08:22:59;3.9;3.9;2.8
82821;PMS5003;72574;46.842;-71.246;2024-02-16T08:25:25;6;4.5;3
82821;PMS5003;72574;46.842;-71.246;2024-02-16T08:27:49;7.19;5.67;3.24
82821;PMS5003;72574;46.842;-71.246;2024-02-16T08:30:16;5.75;4.35;2.9
82821;PMS5003;72574;46.842;-71.246;2024-02-16T08:32:43;7.65;5.15;2.7
82821;PMS5003;72574;46.842;-71.246;2024-02-16T08:35:08;5.8;4.5;3.1
82821;PMS5003;72574;46.842;-71.246;2024-02-16T08:37:32;5.7;5.2;3.45
82821;PMS5003;72574;46.842;-71.246;2024-02-16T08:39:56;5.8;4.7;2.9
82821;PMS5003;72574;46.842;-71.246;2024-02-16T08:42:21;9.1;6.1;3.9
82821;PMS5003;72574;46.842;-71.246;2024-02-16T08:45:00;4.67;4.19;3.19
82821;PMS5003;72574;46.842;-71.246;2024-02-16T08:47:27;7;5.57;3.29
82821;PMS5003;72574;46.842;-71.246;2024-02-16T08:49:50;5;4.7;3.4
82821;PMS5003;72574;46.842;-71.246;2024-02-16T08:52:17;4.8;4.8;3
82821;PMS5003;72574;46.842;-71.246;2024-02-16T08:54:42;4;4;3
82821;PMS5003;72574;46.842;-71.246;2024-02-16T08:57:07;6;3.5;3
82821;PMS5003;72574;46.842;-71.246;2024-02-16T08:59:35;9.65;7.85;3.7
82821;PMS5003;72574;46.842;-71.246;2024-02-16T09:23:01;4.38;4;3.05
82821;PMS5003;72574;46.842;-71.246;2024-02-16T09:23:11;4.95;4.95;3
82821;PMS5003;72574;46.842;-71.246;2024-02-16T09:23:19;6;6;4
82821;PMS5003;72574;46.842;-71.246;2024-02-16T09:23:27;5.33;4;2.62
82821;PMS5003;72574;46.842;-71.246;2024-02-16T09:23:37;5.57;5.43;3.14
82821;PMS5003;72574;46.842;-71.246;2024-02-16T09:23:45;6.35;6.35;3.8
82821;PMS5003;72574;46.842;-71.246;2024-02-16T09:23:51;7.38;3.9;3
82821;PMS5003;72574;46.842;-71.246;2024-02-16T09:24:04;7.86;6.71;3.29
82821;PMS5003;72574;46.842;-71.246;2024-02-16T09:26:27;7.75;6.15;3.6
82821;PMS5003;72574;46.842;-71.246;2024-02-16T09:28:52;4;3.4;1.5
82821;PMS5003;72574;46.842;-71.246;2024-02-16T09:31:20;7.05;4;2.9
82821;PMS5003;72574;46.842;-71.246;2024-02-16T09:33:44;7.29;6.38;2.43
82821;PMS5003;72574;46.842;-71.246;2024-02-16T09:36:10;4.35;4.35;1.35
82821;PMS5003;72574;46.842;-71.246;2024-02-16T09:38:36;4;4;2.9
82821;PMS5003;72574;46.842;-71.246;2024-02-16T09:41:01;6.35;4.1;3.1
82821;PMS5003;72574;46.842;-71.246;2024-02-16T09:43:26;7;4;2.32
82821;PMS5003;72574;46.842;-71.246;2024-02-16T09:45:53;1;1;0
82821;PMS5003;72574;46.842;-71.246;2024-02-16T09:48:16;2.2;1.6;0
82821;PMS5003;72574;46.842;-71.246;2024-02-16T09:50:43;0.57;0.57;0.1
82821;PMS5003;72574;46.842;-71.246;2024-02-16T09:53:09;1.2;0.9;0
82821;PMS5003;72574;46.842;-71.246;2024-02-16T09:55:32;1.8;0.8;0.1
82821;PMS5003;72574;46.842;-71.246;2024-02-16T09:57:59;0.5;0.5;0
82821;PMS5003;72574;46.842;-71.246;2024-02-16T10:00:25;0.45;0.45;0.1
82821;PMS5003;72574;46.842;-71.246;2024-02-16T10:02:50;2.4;0.8;0.4
82821;PMS5003;72574;46.842;-71.246;2024-02-16T10:05:15;3.19;0.19;0
82821;PMS5003;72574;46.842;-71.246;2024-02-16T10:07:43;0.29;0.29;0
82821;PMS5003;72574;46.842;-71.246;2024-02-16T10:10:19;0;0;0
82821;PMS5003;72574;46.842;-71.246;2024-02-16T10:12:35;1.1;1;1
82821;PMS5003;72574;46.842;-71.246;2024-02-16T10:14:58;0.7;0.7;0
82821;PMS5003;72574;46.842;-71.246;2024-02-16T10:17:25;1;1;0
82821;PMS5003;72574;46.842;-71.246;2024-02-16T10:19:55;0.4;0.4;0.1
82821;PMS5003;72574;46.842;-71.246;2024-02-16T10:22:16;2.8;1.5;0.45
82821;PMS5003;72574;46.842;-71.246;2024-02-16T10:24:41;0.95;0.95;0
82821;PMS5003;72574;46.842;-71.246;2024-02-16T10:27:06;1;0.65;0
82821;PMS5003;72574;46.842;-71.246;2024-02-16T10:29:32;2.3;0.4;0
82821;PMS5003;72574;46.842;-71.246;2024-02-16T10:31:58;0;0;0
82821;PMS5003;72574;46.842;-71.246;2024-02-16T10:34:24;0.55;0;0
82821;PMS5003;72574;46.842;-71.246;2024-02-16T10:36:49;0;0;0
82821;PMS5003;72574;46.842;-71.246;2024-02-16T10:39:13;0.45;0.45;0
82821;PMS5003;72574;46.842;-71.246;2024-02-16T10:41:40;1;1;0
82821;PMS5003;72574;46.842;-71.246;2024-02-16T10:44:05;1;1;1
82821;PMS5003;72574;46.842;-71.246;2024-02-16T10:46:30;0.8;0.8;0.8
82821;PMS5003;72574;46.842;-71.246;2024-02-16T10:48:56;0;0;0
82821;PMS5003;72574;46.842;-71.246;2024-02-16T10:51:24;1;0;0
82821;PMS5003;72574;46.842;-71.246;2024-02-16T10:53:47;0.95;0.95;0
82821;PMS5003;72574;46.842;-71.246;2024-02-16T10:56:10;1;1;0
82821;PMS5003;72574;46.842;-71.246;2024-02-16T10:58:39;0;0;0
82821;PMS5003;72574;46.842;-71.246;2024-02-16T11:01:07;0.9;0.75;0
82821;PMS5003;72574;46.842;-71.246;2024-02-16T11:03:28;1;0.1;0
82821;PMS5003;72574;46.842;-71.246;2024-02-16T11:05:55;0.3;0.05;0
82821;PMS5003;72574;46.842;-71.246;2024-02-16T11:08:21;0;0;0
82821;PMS5003;72574;46.842;-71.246;2024-02-16T11:11:01;2.9;1;0.95
82821;PMS5003;72574;46.842;-71.246;2024-02-16T11:13:11;0.7;0;0
82821;PMS5003;72574;46.842;-71.246;2024-02-16T11:15:36;2.57;0;0
82821;PMS5003;72574;46.842;-71.246;2024-02-16T11:18:01;0.75;0.75;0
82821;PMS5003;72574;46.842;-71.246;2024-02-16T11:20:26;2.6;1.4;0
82821;PMS5003;72574;46.842;-71.246;2024-02-16T11:22:52;0.35;0;0
82821;PMS5003;72574;46.842;-71.246;2024-02-16T11:25:17;0;0;0
82821;PMS5003;72574;46.842;-71.246;2024-02-16T11:27:44;0;0;0
82821;PMS5003;72574;46.842;-71.246;2024-02-16T11:30:10;0;0;0
82821;PMS5003;72574;46.842;-71.246;2024-02-16T11:32:35;0;0;0
82821;PMS5003;72574;46.842;-71.246;2024-02-16T11:35:04;0;0;0
82821;PMS5003;72574;46.842;-71.246;2024-02-16T11:37:26;1;1;0.25
82821;PMS5003;72574;46.842;-71.246;2024-02-16T11:39:55;1.25;0.25;0
82821;PMS5003;72574;46.842;-71.246;2024-02-16T11:42:18;0.95;0.95;0.95
82821;PMS5003;72574;46.842;-71.246;2024-02-16T11:44:50;0.35;0.35;0
82821;PMS5003;72574;46.842;-71.246;2024-02-16T11:47:06;0.75;0;0
82821;PMS5003;72574;46.842;-71.246;2024-02-16T11:49:34;0.71;0.71;0
82821;PMS5003;72574;46.842;-71.246;2024-02-16T11:51:59;1.5;0.95;0
82821;PMS5003;72574;46.842;-71.246;2024-02-16T11:54:25;1;0;0
82821;PMS5003;72574;46.842;-71.246;2024-02-16T11:56:50;1.1;1.1;0
82821;PMS5003;72574;46.842;-71.246;2024-02-16T11:59:16;0.9;0.9;0
82821;PMS5003;72574;46.842;-71.246;2024-02-16T12:01:47;1;0.7;0
82821;PMS5003;72574;46.842;-71.246;2024-02-16T12:04:06;0.55;0.55;0
82821;PMS5003;72574;46.842;-71.246;2024-02-16T12:06:33;2.43;1.1;0
82821;PMS5003;72574;46.842;-71.246;2024-02-16T12:08:58;0.25;0.25;0
82821;PMS5003;72574;46.842;-71.246;2024-02-16T12:11:23;2.9;1;0.6
82821;PMS5003;72574;46.842;-71.246;2024-02-16T12:13:46;1;1;0
82821;PMS5003;72574;46.842;-71.246;2024-02-16T12:16:13;0.6;0.25;0
82821;PMS5003;72574;46.842;-71.246;2024-02-16T12:18:38;1;1;0
82821;PMS5003;72574;46.842;-71.246;2024-02-16T12:21:06;2.85;1;0.5
82821;PMS5003;72574;46.842;-71.246;2024-02-16T12:23:32;0.43;0.43;0.38
82821;PMS5003;72574;46.842;-71.246;2024-02-16T12:25:56;2.05;1;0
82821;PMS5003;72574;46.842;-71.246;2024-02-16T12:28:24;1.25;1;0.6
82821;PMS5003;72574;46.842;-71.246;2024-02-16T12:30:46;2.2;1.2;0.9
82821;PMS5003;72574;46.842;-71.246;2024-02-16T12:33:13;0.75;0.75;0
82821;PMS5003;72574;46.842;-71.246;2024-02-16T12:35:36;2.85;1.55;0
82821;PMS5003;72574;46.842;-71.246;2024-02-16T12:38:03;0.9;0.9;0
82821;PMS5003;72574;46.842;-71.246;2024-02-16T12:40:27;3.29;1.29;0.43
82821;PMS5003;72574;46.842;-71.246;2024-02-16T12:42:55;1.25;1.25;0
82821;PMS5003;72574;46.842;-71.246;2024-02-16T12:45:19;4.6;3.2;1.1
82821;PMS5003;72574;46.842;-71.246;2024-02-16T12:47:45;1.2;1.2;0.95
82821;PMS5003;72574;46.842;-71.246;2024-02-16T12:50:11;1.2;1;0
82821;PMS5003;72574;46.842;-71.246;2024-02-16T12:52:35;1.4;1;0
82821;PMS5003;72574;46.842;-71.246;2024-02-16T12:55:01;2.45;2.2;1.2
82821;PMS5003;72574;46.842;-71.246;2024-02-16T12:57:27;1.19;1.19;0.43
82821;PMS5003;72574;46.842;-71.246;2024-02-16T12:59:54;4.3;3.5;1.8
82821;PMS5003;72574;46.842;-71.246;2024-02-16T13:02:18;1.2;0.65;0.4
82821;PMS5003;72574;46.842;-71.246;2024-02-16T13:04:42;0.25;0.25;0
82821;PMS5003;72574;46.842;-71.246;2024-02-16T13:07:10;0.3;0.3;0
82821;PMS5003;72574;46.842;-71.246;2024-02-16T13:09:34;0;0;0
82821;PMS5003;72574;46.842;-71.246;2024-02-16T13:11:58;0;0;0
82821;PMS5003;72574;46.842;-71.246;2024-02-16T13:14:27;1.19;0.62;0.29
82821;PMS5003;72574;46.842;-71.246;2024-02-16T13:16:50;2.15;1.55;0.55
82821;PMS5003;72574;46.842;-71.246;2024-02-16T13:19:16;1;1;0.55
82821;PMS5003;72574;46.842;-71.246;2024-02-16T13:21:40;3;1.2;1
82821;PMS5003;72574;46.842;-71.246;2024-02-16T13:24:08;1.2;0.6;0
82821;PMS5003;72574;46.842;-71.246;2024-02-16T13:26:31;1.43;0.9;0.67
82821;PMS5003;72574;46.842;-71.246;2024-02-16T13:28:58;0.95;0.95;0.67
82821;PMS5003;72574;46.842;-71.246;2024-02-16T13:31:23;1.27;1;0.95
82821;PMS5003;72574;46.842;-71.246;2024-02-16T13:33:49;2;1.19;1
82821;PMS5003;72574;46.842;-71.246;2024-02-16T13:36:14;0.76;0.76;0
82821;PMS5003;72574;46.842;-71.246;2024-02-16T13:38:41;3.52;1.1;0.38
82821;PMS5003;72574;46.842;-71.246;2024-02-16T13:41:04;0.9;0.9;0
82821;PMS5003;72574;46.842;-71.246;2024-02-16T13:43:31;1.1;1.1;0.81
82821;PMS5003;72574;46.842;-71.246;2024-02-16T13:45:55;1;1;0.95
82821;PMS5003;72574;46.842;-71.246;2024-02-16T13:48:22;4;0.95;0.27
82821;PMS5003;72574;46.842;-71.246;2024-02-16T13:50:47;1.19;1;0.38
82821;PMS5003;72574;46.842;-71.246;2024-02-16T13:53:13;1;1;0.38
82821;PMS5003;72574;46.842;-71.246;2024-02-16T13:55:38;0;0;0
82821;PMS5003;72574;46.842;-71.246;2024-02-16T13:58:04;0.52;0;0
82821;PMS5003;72574;46.842;-71.246;2024-02-16T14:00:29;0;0;0
82821;PMS5003;72574;46.842;-71.246;2024-02-16T14:02:55;0.37;0.37;0
82821;PMS5003;72574;46.842;-71.246;2024-02-16T14:05:22;0.64;0.41;0.41
82821;PMS5003;72574;46.842;-71.246;2024-02-16T14:07:45;0.95;0.95;0
82821;PMS5003;72574;46.842;-71.246;2024-02-16T14:10:12;1;1;0.76